Time;durP1;ratioP1;P1;durP2;ratioP2;P2;SDS_P1;SDS_P2;PMS_P1;PMS_P2;Temp;Humidity;BMP_temperature;BMP_pressure;BME280_temperature;BME280_humidity;BME280_pressure;Samples;Min_cycle;Max_cycle;Signal;HPM_P1;HPM_P2
2021/08/20 00:02:15;;;;;;;7.53;3.58;;;;;;;15.44;92.55;100126.78;5014549;28;20068;-69
2021/08/20 00:04:42;;;;;;;7.78;3.50;;;;;;;15.33;92.92;100120.44;5016256;28;20042;-69
2021/08/20 00:07:09;;;;;;;7.95;3.65;;;;;;;15.37;92.59;100121.06;5016039;28;20069;-69
2021/08/20 00:09:36;;;;;;;4.13;3.60;;;;;;;15.28;93.05;100119.97;5015462;28;20126;-69
2021/08/20 00:12:04;;;;;;;8.05;3.65;;;;;;;15.24;92.75;100121.19;5016255;28;20057;-69
2021/08/20 00:14:31;;;;;;;5.18;3.58;;;;;;;15.20;93.05;100125.13;5016368;28;20065;-69
2021/08/20 00:16:58;;;;;;;10.15;3.47;;;;;;;15.15;93.33;100122.78;5014921;28;20046;-68
2021/08/20 00:19:24;;;;;;;5.10;3.92;;;;;;;15.12;93.09;100119.50;5016185;28;20124;-69
2021/08/20 00:21:51;;;;;;;5.53;4.15;;;;;;;15.06;92.89;100119.03;5011534;28;20050;-70
2021/08/20 00:24:18;;;;;;;12.23;4.30;;;;;;;15.02;93.04;100122.94;4979269;28;20058;-69
2021/08/20 00:26:45;;;;;;;12.68;4.43;;;;;;;14.99;93.39;100122.31;4995186;28;20054;-69
2021/08/20 00:29:12;;;;;;;5.70;4.00;;;;;;;14.99;92.62;100125.84;5011654;28;20121;-69
2021/08/20 00:31:39;;;;;;;6.72;4.00;;;;;;;14.85;93.10;100115.34;4995268;28;20333;-69
2021/08/20 00:34:06;;;;;;;6.78;4.15;;;;;;;14.85;93.33;100126.09;4996279;28;20049;-69
2021/08/20 00:36:32;;;;;;;7.30;4.13;;;;;;;14.85;93.41;100126.97;4996223;28;20353;-69
2021/08/20 00:39:00;;;;;;;4.88;4.25;;;;;;;14.79;93.54;100131.00;5011324;28;20042;-69
2021/08/20 00:41:29;;;;;;;10.05;5.18;;;;;;;14.78;93.16;100131.97;4994979;28;20042;-70
2021/08/20 00:43:56;;;;;;;6.70;5.30;;;;;;;14.76;94.27;100125.03;4995991;28;20034;-70
2021/08/20 00:46:23;;;;;;;10.30;4.80;;;;;;;14.74;93.81;100121.59;5011340;28;20100;-69
2021/08/20 00:48:50;;;;;;;9.18;5.15;;;;;;;14.73;94.05;100123.41;4994774;28;20043;-69
2021/08/20 00:51:22;;;;;;;8.60;5.55;;;;;;;14.75;94.11;100124.16;4995851;28;20066;-69
2021/08/20 00:53:50;;;;;;;6.38;5.38;;;;;;;14.76;94.07;100120.50;5011120;28;20061;-69
2021/08/20 00:56:18;;;;;;;9.35;4.53;;;;;;;14.70;94.71;100115.56;4995942;28;20443;-70
2021/08/20 00:58:50;;;;;;;9.20;5.28;;;;;;;14.62;94.55;100109.97;4994643;28;20046;-69
2021/08/20 01:01:18;;;;;;;10.82;5.00;;;;;;;14.66;95.05;100116.81;4994786;28;20426;-70
2021/08/20 01:03:46;;;;;;;11.23;5.70;;;;;;;14.66;94.76;100106.06;4994575;28;20395;-69
2021/08/20 01:06:13;;;;;;;9.40;5.80;;;;;;;14.71;95.43;100119.13;5010698;28;20419;-69
2021/08/20 01:08:40;;;;;;;10.15;5.85;;;;;;;14.63;95.29;100111.66;4995873;28;20049;-69
2021/08/20 01:11:10;;;;;;;7.60;5.22;;;;;;;14.73;95.21;100125.22;4995676;28;20340;-69
2021/08/20 01:13:39;;;;;;;12.38;6.20;;;;;;;14.73;95.30;100127.91;5010501;28;20090;-69
2021/08/20 01:16:07;;;;;;;12.05;5.88;;;;;;;14.65;95.39;100125.81;5015385;28;20054;-69
2021/08/20 01:18:38;;;;;;;9.82;5.82;;;;;;;14.66;95.84;100116.81;5013986;28;20505;-69
2021/08/20 01:21:19;;;;;;;9.10;6.15;;;;;;;14.69;96.19;100121.94;5015042;28;20081;-69
2021/08/20 01:23:56;;;;;;;16.60;6.20;;;;;;;14.61;96.17;100133.25;5013906;28;20056;-69
2021/08/20 01:26:24;;;;;;;11.35;7.03;;;;;;;14.65;96.01;100118.63;5015298;28;20104;-69
2021/08/20 01:28:52;;;;;;;10.07;6.07;;;;;;;14.65;96.24;100109.72;5013660;28;20129;-69
2021/08/20 01:31:20;;;;;;;9.32;7.07;;;;;;;14.63;96.07;100112.53;5013811;28;20561;-69
2021/08/20 01:33:47;;;;;;;10.40;6.85;;;;;;;14.63;95.88;100108.97;5014105;28;20049;-69
2021/08/20 01:36:14;;;;;;;11.68;6.28;;;;;;;14.64;96.26;100108.00;5015852;28;20347;-68
2021/08/20 01:38:49;;;;;;;10.32;6.57;;;;;;;14.64;96.37;100108.00;5013833;28;20080;-69
2021/08/20 01:41:16;;;;;;;11.13;6.80;;;;;;;14.59;96.71;100102.16;5013758;28;20046;-69
2021/08/20 01:43:44;;;;;;;10.18;6.53;;;;;;;14.57;96.95;100106.78;5013888;28;20054;-69
2021/08/20 01:46:11;;;;;;;17.10;6.53;;;;;;;14.55;97.28;100098.00;5013826;28;20056;-69
2021/08/20 01:48:53;;;;;;;11.18;6.90;;;;;;;14.64;97.29;100113.38;5013659;28;20041;-69
2021/08/20 01:51:25;;;;;;;12.88;6.28;;;;;;;14.62;96.42;100100.09;5030145;28;20074;-69
2021/08/20 01:53:53;;;;;;;13.65;6.55;;;;;;;14.66;97.03;100111.44;5013793;28;20141;-70
2021/08/20 01:56:22;;;;;;;11.07;6.65;;;;;;;14.58;97.31;100090.56;5030149;28;20042;-69
2021/08/20 01:58:50;;;;;;;10.18;6.47;;;;;;;14.58;97.54;100105.78;5013480;28;20046;-70
2021/08/20 02:01:30;;;;;;;15.73;6.43;;;;;;;14.62;97.85;100115.34;5013662;28;20050;-69
2021/08/20 02:03:59;;;;;;;11.40;6.75;;;;;;;14.61;97.78;100111.78;5013518;28;20137;-69
2021/08/20 02:06:29;;;;;;;10.30;6.68;;;;;;;14.64;97.65;100113.38;5013581;28;20069;-69
2021/08/20 02:08:56;;;;;;;12.20;7.07;;;;;;;14.67;98.32;100121.19;5014640;28;20046;-69
2021/08/20 02:11:24;;;;;;;14.23;6.57;;;;;;;14.76;97.59;100115.13;5013475;28;20052;-70
2021/08/20 02:13:56;;;;;;;14.85;7.75;;;;;;;14.78;97.26;100115.00;4997751;28;20085;-69
2021/08/20 02:16:25;;;;;;;11.10;7.47;;;;;;;14.83;97.14;100122.69;5013578;28;20045;-69
2021/08/20 02:18:53;;;;;;;9.95;6.65;;;;;;;14.81;97.48;100114.75;5013352;28;20096;-69
2021/08/20 02:21:22;;;;;;;10.52;6.95;;;;;;;14.92;96.82;100111.19;5010061;28;20050;-70
2021/08/20 02:23:51;;;;;;;13.63;7.85;;;;;;;14.86;97.16;100103.66;5026692;28;20101;-70
2021/08/20 02:26:20;;;;;;;11.82;7.70;;;;;;;14.90;97.57;100108.66;4996474;28;20510;-69
2021/08/20 02:28:47;;;;;;;11.18;7.38;;;;;;;14.92;97.34;100109.38;5013518;28;20061;-70
2021/08/20 02:31:14;;;;;;;15.32;7.15;;;;;;;14.93;97.62;100111.09;5029858;28;20058;-69
2021/08/20 02:33:44;;;;;;;15.23;7.72;;;;;;;14.96;97.24;100109.13;5013723;28;20133;-69
2021/08/20 02:36:13;;;;;;;10.90;7.55;;;;;;;14.96;96.65;100111.81;4997251;28;20356;-70
2021/08/20 02:38:40;;;;;;;9.90;7.43;;;;;;;15.05;96.98;100113.78;4997436;28;20137;-69
2021/08/20 02:41:08;;;;;;;13.82;7.35;;;;;;;15.03;97.17;100113.88;4997198;28;20046;-70
2021/08/20 02:43:41;;;;;;;12.88;8.10;;;;;;;15.03;97.35;100113.88;4997690;28;20343;-69
2021/08/20 02:46:08;;;;;;;15.68;7.47;;;;;;;14.98;97.85;100115.25;4997228;28;20054;-70
2021/08/20 02:48:35;;;;;;;13.88;7.50;;;;;;;14.99;96.95;100109.72;4980941;28;20097;-69
2021/08/20 02:51:07;;;;;;;11.05;8.05;;;;;;;14.97;97.50;100106.31;5013586;28;20058;-69
2021/08/20 02:53:35;;;;;;;12.68;8.50;;;;;;;15.01;97.68;100105.09;4999056;28;20054;-69
2021/08/20 02:56:03;;;;;;;10.55;7.35;;;;;;;15.06;97.71;100108.28;5014305;28;20351;-69
2021/08/20 02:58:43;;;;;;;;;;;;;;;15.11;97.95;100107.03;4997389;28;20443;-69
2021/08/20 03:01:10;;;;;;;13.77;8.68;;;;;;;15.06;97.81;100108.28;5029664;28;19932;-70
2021/08/20 03:03:37;;;;;;;16.00;8.70;;;;;;;15.03;98.05;100107.69;5013188;28;20138;-70
2021/08/20 03:06:12;;;;;;;13.77;8.40;;;;;;;15.04;98.02;100107.53;4999510;28;20062;-68
2021/08/20 03:08:38;;;;;;;13.65;7.95;;;;;;;15.03;98.29;100116.56;5015299;28;20435;-68
2021/08/20 03:11:07;;;;;;;15.00;8.07;;;;;;;15.05;98.53;100111.91;5016129;28;20061;-69
2021/08/20 03:13:37;;;;;;;11.30;7.80;;;;;;;15.03;98.09;100108.50;5013121;28;20050;-69
2021/08/20 03:16:04;;;;;;;12.15;8.05;;;;;;;15.08;98.47;100121.56;5015448;28;20124;-68
2021/08/20 03:18:32;;;;;;;13.40;8.05;;;;;;;15.02;98.50;100104.13;5016147;28;20138;-68
2021/08/20 03:21:02;;;;;;;13.80;7.97;;;;;;;15.02;98.88;100117.56;5015852;28;20684;-68
2021/08/20 03:23:39;;;;;;;11.95;7.75;;;;;;;15.05;99.22;100113.78;5024628;28;20302;-68
2021/08/20 03:26:06;;;;;;;12.75;7.55;;;;;;;15.04;99.14;100104.84;5000113;28;20446;-68
2021/08/20 03:28:41;;;;;;;12.85;7.95;;;;;;;15.02;99.17;100100.56;5015949;28;20057;-69
2021/08/20 03:31:09;;;;;;;13.05;8.82;;;;;;;15.15;98.98;100111.19;5015992;28;20100;-68
2021/08/20 03:33:37;;;;;;;13.98;9.05;;;;;;;15.02;99.76;100112.19;5017130;28;20108;-69
2021/08/20 03:36:15;;;;;;;13.02;8.43;;;;;;;15.04;100.00;100106.69;5015781;28;20054;-68
2021/08/20 03:38:45;;;;;;;14.00;8.50;;;;;;;15.03;100.00;100108.50;5015037;28;20057;-69
2021/08/20 03:41:20;;;;;;;15.13;8.88;;;;;;;15.04;100.00;100109.38;5015641;28;20087;-69
2021/08/20 03:44:17;;;;;;;14.10;9.68;;;;;;;15.04;100.00;100106.69;5010082;28;20050;-68
2021/08/20 03:46:49;;;;;;;15.93;10.18;;;;;;;15.06;100.00;100120.84;5012332;28;20086;-69
2021/08/20 03:49:21;;;;;;;15.70;10.43;;;;;;;15.14;100.00;100126.47;4996192;28;20122;-68
2021/08/20 03:51:48;;;;;;;14.70;10.07;;;;;;;15.14;100.00;100115.69;5010525;28;20050;-68
2021/08/20 03:54:22;;;;;;;14.43;10.27;;;;;;;15.13;100.00;100129.25;5032060;28;20065;-68
2021/08/20 03:56:50;;;;;;;15.18;10.02;;;;;;;15.07;100.00;100123.44;5031348;28;20084;-69
2021/08/20 03:59:22;;;;;;;19.55;10.57;;;;;;;15.16;100.00;100131.72;5035342;28;20521;-68
2021/08/20 04:01:54;;;;;;;17.48;10.52;;;;;;;15.16;100.00;100129.03;5034868;28;20060;-68
2021/08/20 04:04:21;;;;;;;17.35;10.50;;;;;;;15.18;100.00;100138.69;5035172;28;20076;-69
2021/08/20 04:06:53;;;;;;;17.05;10.50;;;;;;;15.21;100.00;100134.91;5018987;28;20058;-68
2021/08/20 04:09:22;;;;;;;16.13;10.85;;;;;;;15.19;100.00;100134.13;4995582;28;20053;-69
2021/08/20 04:12:02;;;;;;;15.82;11.05;;;;;;;15.19;100.00;100145.75;5031058;28;20423;-69
2021/08/20 04:14:54;;;;;;;18.70;11.40;;;;;;;15.17;100.00;100142.34;5018604;28;20458;-69
2021/08/20 04:17:21;;;;;;;17.02;10.80;;;;;;;15.17;100.00;100141.50;4998770;28;20077;-69
2021/08/20 04:19:48;;;;;;;18.48;11.02;;;;;;;15.20;100.00;100133.19;5020382;28;20046;-68
2021/08/20 04:22:16;;;;;;;19.77;11.82;;;;;;;15.22;100.00;100136.59;5015047;28;20049;-68
2021/08/20 04:24:43;;;;;;;21.95;11.73;;;;;;;15.18;100.00;100141.38;5042773;28;20046;-68
2021/08/20 04:27:28;;;;;;;16.98;11.30;;;;;;;15.13;100.00;100134.63;4996774;28;20049;-68
2021/08/20 04:30:01;;;;;;;17.40;10.90;;;;;;;15.15;100.00;100132.69;4996868;28;20169;-68
2021/08/20 04:32:45;;;;;;;16.42;11.00;;;;;;;15.17;100.00;100136.97;5025022;28;20465;-68
2021/08/20 04:35:28;;;;;;;19.48;11.02;;;;;;;15.22;100.00;100136.59;5000489;28;20115;-69
2021/08/20 04:38:07;;;;;;;19.45;10.82;;;;;;;15.17;100.00;100134.28;5014112;28;20351;-69
2021/08/20 04:40:48;;;;;;;16.65;10.73;;;;;;;15.15;100.00;100140.75;5011966;28;20057;-70
2021/08/20 04:43:38;;;;;;;18.92;11.57;;;;;;;15.16;100.00;100134.41;5014442;28;20050;-71
2021/08/20 04:46:34;;;;;;;21.77;11.07;;;;;;;15.14;100.00;100136.38;5013373;28;20053;-74
2021/08/20 04:49:12;;;;;;;19.42;11.52;;;;;;;15.18;100.00;100127.94;4999619;28;20050;-72
2021/08/20 04:51:51;;;;;;;20.65;11.57;;;;;;;15.23;100.00;100129.38;5014609;28;20073;-69
2021/08/20 04:54:47;;;;;;;16.02;10.65;;;;;;;15.25;100.00;100132.81;5012736;28;20473;-69
2021/08/20 04:57:18;;;;;;;18.08;10.77;;;;;;;15.20;100.00;100130.50;5013634;28;20080;-69
2021/08/20 04:59:45;;;;;;;23.05;11.48;;;;;;;15.22;100.00;100133.91;5029697;28;20046;-69
2021/08/20 05:02:12;;;;;;;19.02;11.77;;;;;;;15.30;100.00;100141.34;5013190;28;20224;-69
2021/08/20 05:04:39;;;;;;;21.23;11.27;;;;;;;15.30;100.00;100142.19;5005804;28;20046;-69
2021/08/20 05:07:06;;;;;;;19.83;11.52;;;;;;;15.27;100.00;100142.47;5000454;28;20053;-69
2021/08/20 05:09:33;;;;;;;17.10;11.20;;;;;;;15.29;100.00;100140.50;4997888;28;20038;-69
2021/08/20 05:12:01;;;;;;;17.02;11.32;;;;;;;15.31;100.00;100146.59;5012366;28;20064;-69
2021/08/20 05:14:29;;;;;;;15.15;11.38;;;;;;;15.29;100.00;100140.50;4993819;28;20060;-69
2021/08/20 05:16:56;;;;;;;14.18;11.30;;;;;;;15.33;100.00;100150.03;5000034;28;20436;-69
2021/08/20 05:19:22;;;;;;;16.23;11.55;;;;;;;15.27;100.00;100146.97;5007945;28;20034;-70
2021/08/20 05:21:49;;;;;;;17.25;10.93;;;;;;;15.26;100.00;100139.88;5022289;28;20376;-69
2021/08/20 05:24:16;;;;;;;17.08;10.70;;;;;;;15.26;100.00;100151.47;5015476;28;20389;-69
2021/08/20 05:26:43;;;;;;;18.25;10.95;;;;;;;15.25;100.00;100162.38;5015624;28;20339;-69
2021/08/20 05:29:09;;;;;;;17.25;11.77;;;;;;;15.27;100.00;100160.41;5015128;28;20106;-69
2021/08/20 05:31:37;;;;;;;18.83;11.75;;;;;;;15.26;100.00;100154.16;5013988;28;20054;-69
2021/08/20 05:34:04;;;;;;;18.50;11.80;;;;;;;15.28;100.00;100154.94;5015024;28;20065;-70
2021/08/20 05:36:30;;;;;;;19.05;12.10;;;;;;;15.36;100.00;100151.59;5014863;28;20042;-69
2021/08/20 05:38:57;;;;;;;17.63;10.88;;;;;;;15.37;100.00;100150.63;5014910;28;20042;-69
2021/08/20 05:41:24;;;;;;;17.42;11.80;;;;;;;15.41;100.00;100153.94;5013741;28;20056;-70
2021/08/20 05:43:51;;;;;;;17.27;12.10;;;;;;;15.46;100.00;100163.31;5014601;28;20053;-69
2021/08/20 05:46:17;;;;;;;15.43;11.63;;;;;;;15.44;100.00;100154.53;5014976;28;20045;-69
2021/08/20 05:48:44;;;;;;;17.15;11.27;;;;;;;15.53;100.00;100160.13;5014783;28;20042;-69
2021/08/20 05:51:11;;;;;;;20.65;11.88;;;;;;;15.56;100.00;100160.72;5012914;28;20041;-73
2021/08/20 05:53:38;;;;;;;19.58;10.98;;;;;;;15.59;100.00;100167.69;5014612;28;20061;-74
2021/08/20 05:56:04;;;;;;;25.55;12.20;;;;;;;15.61;100.00;100168.41;5014421;28;20493;-74
2021/08/20 05:58:31;;;;;;;22.48;11.90;;;;;;;15.66;100.00;100152.75;5014235;28;20046;-73
2021/08/20 06:00:58;;;;;;;20.80;11.57;;;;;;;15.82;100.00;100170.31;5015886;28;20046;-70
2021/08/20 06:03:25;;;;;;;18.88;10.77;;;;;;;16.02;100.00;100164.16;5015838;28;20116;-70
2021/08/20 06:05:57;;;;;;;17.77;10.48;;;;;;;16.13;100.00;100167.78;5015916;28;20511;-72
2021/08/20 06:08:26;;;;;;;14.70;11.27;;;;;;;16.30;99.29;100177.13;5033428;28;20077;-71
2021/08/20 06:10:52;;;;;;;18.40;10.50;;;;;;;16.28;99.48;100171.84;5018016;28;20042;-71
2021/08/20 06:13:19;;;;;;;14.50;10.18;;;;;;;16.29;99.30;100180.81;5000368;28;20386;-71
2021/08/20 06:15:46;;;;;;;14.75;10.50;;;;;;;16.29;99.21;100181.63;5021457;28;20120;-75
2021/08/20 06:18:13;;;;;;;16.70;10.15;;;;;;;16.25;99.82;100185.56;5004151;28;20073;-71
2021/08/20 06:20:39;;;;;;;13.85;10.27;;;;;;;16.23;99.91;100181.31;5016299;28;20050;-71
2021/08/20 06:23:07;;;;;;;12.48;9.65;;;;;;;16.37;98.66;100189.06;5015016;28;20374;-71
2021/08/20 06:25:34;;;;;;;15.18;9.93;;;;;;;16.42;98.04;100181.47;5013479;28;20096;-71
2021/08/20 06:28:00;;;;;;;13.88;9.93;;;;;;;16.40;99.05;100190.66;5016514;28;20045;-71
2021/08/20 06:30:27;;;;;;;11.10;8.88;;;;;;;16.37;98.23;100190.91;4992070;28;20084;-75
2021/08/20 06:32:54;;;;;;;20.27;9.38;;;;;;;16.33;98.81;100197.56;4981602;28;20046;-76
2021/08/20 06:35:21;;;;;;;12.43;8.55;;;;;;;16.31;98.95;100189.59;5008307;28;20128;-74
2021/08/20 06:37:48;;;;;;;11.60;8.43;;;;;;;16.29;98.94;100195.09;5011100;28;20066;-74
2021/08/20 06:40:15;;;;;;;14.70;8.02;;;;;;;16.32;99.28;100195.81;5000714;28;20061;-70
2021/08/20 06:42:42;;;;;;;10.50;7.32;;;;;;;16.20;100.00;100203.97;5016997;28;20166;-69
2021/08/20 06:45:09;;;;;;;13.80;7.63;;;;;;;15.97;100.00;100203.22;5016117;28;20050;-69
2021/08/20 06:47:36;;;;;;;9.60;7.70;;;;;;;15.77;100.00;100185.97;5016312;28;20057;-69
2021/08/20 06:50:03;;;;;;;8.98;7.47;;;;;;;15.77;100.00;100203.00;5017286;28;20042;-69
2021/08/20 06:52:30;;;;;;;11.35;7.80;;;;;;;15.71;100.00;100201.66;5017344;28;20050;-69
2021/08/20 06:54:58;;;;;;;10.23;7.70;;;;;;;15.66;100.00;100205.69;5017324;28;20111;-70
2021/08/20 06:57:25;;;;;;;10.32;7.15;;;;;;;15.55;100.00;100191.31;5017469;28;20093;-69
2021/08/20 06:59:52;;;;;;;7.10;6.40;;;;;;;15.64;100.00;100207.66;5016809;28;20042;-70
2021/08/20 07:02:19;;;;;;;9.43;6.32;;;;;;;15.65;100.00;100206.69;5017744;28;20104;-69
2021/08/20 07:04:46;;;;;;;8.23;6.45;;;;;;;15.56;100.00;100201.09;5017563;28;20037;-69
2021/08/20 07:07:13;;;;;;;7.10;6.18;;;;;;;15.56;100.00;100202.91;5017608;28;20058;-69
2021/08/20 07:09:39;;;;;;;8.23;6.45;;;;;;;15.52;100.00;100199.59;5017645;28;20038;-69
2021/08/20 07:12:07;;;;;;;8.15;5.55;;;;;;;15.51;100.00;100203.28;5017429;28;20046;-69
2021/08/20 07:14:33;;;;;;;6.85;5.85;;;;;;;15.50;100.00;100209.66;5017625;28;20437;-69
2021/08/20 07:17:00;;;;;;;6.63;4.50;;;;;;;15.44;100.00;100207.44;5000163;28;20057;-69
2021/08/20 07:19:27;;;;;;;6.25;4.90;;;;;;;15.49;100.00;100216.00;4983669;28;20103;-70
2021/08/20 07:21:54;;;;;;;6.00;4.82;;;;;;;15.40;100.00;100193.41;5017355;28;20100;-69
2021/08/20 07:24:21;;;;;;;5.85;4.68;;;;;;;15.56;100.00;100210.97;5017430;28;20049;-69
2021/08/20 07:26:47;;;;;;;6.18;4.53;;;;;;;15.58;100.00;100215.25;5017113;28;20493;-70
2021/08/20 07:29:14;;;;;;;6.68;4.50;;;;;;;15.56;100.00;100210.97;5016096;28;20435;-69
2021/08/20 07:31:41;;;;;;;4.95;3.90;;;;;;;15.58;100.00;100211.72;5032758;28;20375;-69
2021/08/20 07:34:08;;;;;;;3.58;3.15;;;;;;;15.68;100.00;100225.28;5015787;28;20049;-69
2021/08/20 07:36:35;;;;;;;5.50;3.10;;;;;;;15.67;100.00;100226.25;5015942;28;20468;-69
2021/08/20 07:39:01;;;;;;;6.85;3.45;;;;;;;15.67;100.00;100213.66;5016843;28;20058;-69
2021/08/20 07:41:28;;;;;;;3.92;3.03;;;;;;;15.64;100.00;100213.06;5016938;28;20046;-69
2021/08/20 07:43:55;;;;;;;3.47;2.80;;;;;;;15.76;100.00;100222.81;5015549;28;20049;-69
2021/08/20 07:46:22;;;;;;;4.82;2.75;;;;;;;15.82;100.00;100216.06;5016922;28;20053;-69
2021/08/20 07:48:49;;;;;;;2.92;2.60;;;;;;;15.77;100.00;100208.38;5016726;28;20042;-69
2021/08/20 07:51:15;;;;;;;5.18;2.70;;;;;;;15.81;100.00;100226.00;5016781;28;20053;-69
2021/08/20 07:53:42;;;;;;;3.63;2.55;;;;;;;15.87;100.00;100230.84;5016732;28;20446;-69
2021/08/20 07:56:09;;;;;;;3.47;2.67;;;;;;;15.80;100.00;100223.41;5015455;28;20050;-69
2021/08/20 07:58:36;;;;;;;2.88;2.60;;;;;;;15.92;100.00;100229.66;5016395;28;20042;-69
2021/08/20 08:01:03;;;;;;;4.53;3.25;;;;;;;15.98;100.00;100239.91;5015246;28;20045;-68
2021/08/20 08:03:29;;;;;;;3.75;2.85;;;;;;;16.07;100.00;100238.28;5015466;28;20046;-68
2021/08/20 08:05:57;;;;;;;4.10;3.70;;;;;;;16.09;100.00;100231.81;5015217;28;20046;-69
2021/08/20 08:08:24;;;;;;;4.20;3.33;;;;;;;16.23;100.00;100227.94;5015615;28;20129;-69
2021/08/20 08:10:50;;;;;;;4.57;3.42;;;;;;;16.23;100.00;100233.31;5016157;28;20045;-69
2021/08/20 08:13:17;;;;;;;5.57;3.80;;;;;;;16.32;100.00;100233.53;5016236;28;20045;-69
2021/08/20 08:15:44;;;;;;;5.07;3.72;;;;;;;16.37;100.00;100242.09;5016119;28;20046;-70
2021/08/20 08:18:11;;;;;;;7.38;3.88;;;;;;;16.38;100.00;100244.66;5015155;28;20498;-69
2021/08/20 08:20:38;;;;;;;4.95;3.55;;;;;;;16.42;100.00;100246.13;5016009;28;20052;-69
2021/08/20 08:23:04;;;;;;;4.65;3.80;;;;;;;16.46;100.00;100253.91;4994744;28;20038;-69
2021/08/20 08:25:32;;;;;;;6.57;3.97;;;;;;;16.39;100.00;100243.66;4995426;28;20046;-69
2021/08/20 08:27:59;;;;;;;5.68;4.13;;;;;;;16.53;100.00;100250.59;4996452;28;20073;-69
2021/08/20 08:30:28;;;;;;;5.25;3.58;;;;;;;16.47;100.00;100253.81;4996241;28;20057;-69
2021/08/20 08:32:58;;;;;;;4.60;3.90;;;;;;;16.53;100.00;100252.41;4996496;28;20117;-69
2021/08/20 08:35:28;;;;;;;5.07;4.35;;;;;;;16.52;100.00;100258.78;4996406;28;20042;-69
2021/08/20 08:38:10;;;;;;;5.00;4.53;;;;;;;16.59;100.00;100259.97;4995055;28;20089;-69
2021/08/20 08:40:39;;;;;;;4.78;4.28;;;;;;;16.59;100.00;100257.28;4996121;28;20383;-70
2021/08/20 08:43:08;;;;;;;7.18;4.47;;;;;;;16.57;100.00;100259.25;4996035;28;20045;-69
2021/08/20 08:45:36;;;;;;;6.82;4.95;;;;;;;16.62;100.00;100259.69;4994786;28;20050;-69
2021/08/20 08:48:05;;;;;;;5.20;4.43;;;;;;;16.61;100.00;100267.94;4996141;28;20054;-69
2021/08/20 08:50:33;;;;;;;5.43;4.50;;;;;;;16.61;100.00;100259.84;4995855;28;20050;-69
2021/08/20 08:53:02;;;;;;;5.30;4.40;;;;;;;16.65;100.00;100264.84;4994876;28;20056;-69
2021/08/20 08:55:31;;;;;;;5.22;4.57;;;;;;;16.74;100.00;100267.75;4994749;28;20050;-69
2021/08/20 08:57:57;;;;;;;6.95;4.47;;;;;;;16.79;100.00;100263.66;4995889;28;20112;-69
2021/08/20 09:00:33;;;;;;;6.72;4.47;;;;;;;16.90;100.00;100264.59;4994515;28;20046;-70
2021/08/20 09:03:01;;;;;;;5.35;4.85;;;;;;;16.96;100.00;100264.88;4994645;28;20129;-69
2021/08/20 09:05:45;;;;;;;9.13;4.50;;;;;;;16.99;100.00;100268.34;4994529;28;20048;-70
2021/08/20 09:08:19;;;;;;;8.32;5.15;;;;;;;17.09;100.00;100263.84;4995628;28;20055;-70
2021/08/20 09:11:02;;;;;;;7.40;4.93;;;;;;;17.23;100.00;100266.19;4994486;28;20050;-70
2021/08/20 09:13:30;;;;;;;4.57;4.15;;;;;;;17.38;100.00;100266.69;5010784;28;20049;-70
2021/08/20 09:16:09;;;;;;;5.13;4.00;;;;;;;17.54;100.00;100257.25;5010946;28;20051;-68
2021/08/20 09:18:37;;;;;;;5.53;3.90;;;;;;;17.71;100.00;100258.44;4994665;28;20042;-69
2021/08/20 09:21:04;;;;;;;7.35;3.95;;;;;;;17.76;100.00;100271.53;4998869;28;20041;-69
2021/08/20 09:23:32;;;;;;;4.43;4.03;;;;;;;17.74;100.00;100266.25;5015342;28;20050;-68
2021/08/20 09:26:00;;;;;;;4.30;3.70;;;;;;;17.69;100.00;100271.22;5015178;28;20178;-71
2021/08/20 09:28:31;;;;;;;3.70;3.40;;;;;;;17.84;100.00;100262.72;5015078;28;20057;-70
2021/08/20 09:31:00;;;;;;;5.40;3.72;;;;;;;17.99;100.00;100261.34;5014957;28;20405;-70
2021/08/20 09:33:30;;;;;;;5.22;3.80;;;;;;;17.99;100.00;100255.94;5013926;28;20140;-70
2021/08/20 09:36:04;;;;;;;4.47;3.17;;;;;;;18.01;100.00;100253.94;5014230;28;20743;-69
2021/08/20 09:38:37;;;;;;;4.85;3.60;;;;;;;17.97;98.51;100251.69;5010540;28;20472;-72
2021/08/20 09:41:10;;;;;;;5.85;3.60;;;;;;;17.96;100.00;100250.81;4995348;28;20050;-70
2021/08/20 09:43:40;;;;;;;6.32;3.92;;;;;;;17.95;100.00;100254.50;4995335;28;20390;-70
2021/08/20 09:46:08;;;;;;;4.87;3.43;;;;;;;17.97;99.02;100248.97;4995308;28;20052;-69
2021/08/20 09:48:41;;;;;;;9.80;4.07;;;;;;;17.94;97.33;100252.81;4995120;28;20046;-69
2021/08/20 09:51:09;;;;;;;5.47;3.47;;;;;;;17.85;98.12;100259.03;4994017;28;20093;-70
2021/08/20 09:53:36;;;;;;;9.27;3.90;;;;;;;17.91;100.00;100270.13;4994100;28;20053;-70
2021/08/20 09:56:07;;;;;;;6.30;3.30;;;;;;;18.06;98.83;100261.66;4995296;28;20065;-69
2021/08/20 09:58:34;;;;;;;;;;;;;;;18.24;96.63;100266.38;4995795;28;20054;-71
2021/08/20 10:01:03;;;;;;;4.45;3.50;;;;;;;18.46;95.65;100262.53;4995225;28;19993;-70
2021/08/20 10:03:34;;;;;;;3.47;3.08;;;;;;;18.70;94.05;100261.25;4994250;28;20042;-70
2021/08/20 10:06:03;;;;;;;3.28;2.95;;;;;;;18.73;92.54;100263.63;4995552;28;20554;-70
2021/08/20 10:08:32;;;;;;;4.03;2.90;;;;;;;18.85;93.26;100261.66;4995035;28;20061;-70
2021/08/20 10:10:59;;;;;;;4.18;3.13;;;;;;;18.97;92.26;100259.63;4995039;28;20053;-70
2021/08/20 10:13:29;;;;;;;7.00;3.15;;;;;;;18.96;90.27;100257.91;4994220;28;20046;-70
2021/08/20 10:16:01;;;;;;;7.00;3.13;;;;;;;19.20;89.55;100260.16;4995271;28;20420;-70
2021/08/20 10:18:30;;;;;;;4.65;2.85;;;;;;;19.32;90.05;100241.88;4995070;28;20042;-70
2021/08/20 10:20:58;;;;;;;4.95;2.67;;;;;;;19.62;89.34;100252.56;4997270;28;20053;-70
2021/08/20 10:23:25;;;;;;;4.28;3.00;;;;;;;19.51;86.97;100256.31;5029796;28;20045;-70
2021/08/20 10:25:54;;;;;;;8.00;3.30;;;;;;;19.43;87.46;100246.25;5014637;28;20046;-70
2021/08/20 10:28:22;;;;;;;3.92;3.13;;;;;;;19.35;89.50;100238.84;4997024;28;20347;-70
2021/08/20 10:30:50;;;;;;;4.60;3.25;;;;;;;19.52;88.26;100255.31;5014568;28;20391;-70
2021/08/20 10:33:32;;;;;;;6.53;2.90;;;;;;;19.71;85.04;100250.81;5013459;28;20085;-69
2021/08/20 10:36:03;;;;;;;4.10;2.72;;;;;;;19.74;84.99;100251.38;5014749;28;20141;-70
2021/08/20 10:38:39;;;;;;;3.42;1.88;;;;;;;19.65;84.89;100255.81;5014471;28;20042;-70
2021/08/20 10:41:16;;;;;;;2.90;2.10;;;;;;;19.62;84.50;100253.41;5013627;28;20038;-70
2021/08/20 10:44:05;;;;;;;3.53;2.28;;;;;;;19.65;87.07;100250.41;5014524;28;20049;-70
2021/08/20 10:46:34;;;;;;;3.05;2.00;;;;;;;19.77;86.19;100248.34;5014311;28;20296;-70
2021/08/20 10:49:20;;;;;;;2.53;2.05;;;;;;;19.63;85.87;100254.25;5017967;28;20430;-70
2021/08/20 10:51:53;;;;;;;3.90;2.80;;;;;;;19.58;86.95;100256.56;5017279;28;20073;-70
2021/08/20 10:54:33;;;;;;;5.63;2.85;;;;;;;19.42;85.57;100258.06;5017945;28;20049;-70
2021/08/20 10:57:01;;;;;;;4.22;3.72;;;;;;;19.32;85.96;100263.53;5017829;28;20088;-69
2021/08/20 10:59:55;;;;;;;3.40;2.80;;;;;;;19.41;86.71;100254.50;5017919;28;20046;-70
2021/08/20 11:02:22;;;;;;;3.17;2.88;;;;;;;19.46;85.31;100264.03;5016499;28;20149;-70
2021/08/20 11:05:03;;;;;;;3.40;2.97;;;;;;;19.30;84.87;100227.66;5017696;28;20052;-70
2021/08/20 11:07:36;;;;;;;3.65;2.50;;;;;;;19.48;87.16;100256.59;5017434;28;20058;-69
2021/08/20 11:10:09;;;;;;;2.65;2.30;;;;;;;19.52;87.58;100258.03;5017476;28;20076;-70
2021/08/20 11:12:51;;;;;;;3.58;2.88;;;;;;;19.44;84.61;100257.94;5032650;28;20438;-70
2021/08/20 11:15:20;;;;;;;4.82;2.90;;;;;;;19.32;84.72;100263.53;5017513;28;20046;-70
2021/08/20 11:17:54;;;;;;;5.07;2.67;;;;;;;19.40;85.55;100249.25;5032820;28;20060;-70
2021/08/20 11:20:37;;;;;;;4.68;3.08;;;;;;;19.65;87.63;100257.66;5016409;28;20073;-70
2021/08/20 11:23:04;;;;;;;3.45;2.55;;;;;;;19.78;84.81;100260.03;5017222;28;20049;-70
2021/08/20 11:25:37;;;;;;;5.00;2.17;;;;;;;19.81;83.40;100260.59;5017410;28;20057;-70
2021/08/20 11:28:20;;;;;;;4.03;2.38;;;;;;;19.85;83.13;100263.84;5017130;28;20052;-70
2021/08/20 11:31:03;;;;;;;3.33;2.33;;;;;;;20.08;82.50;100263.41;5017001;28;20046;-69